UAL27LB KBOS-KPHL
Flight info
| Callsign | UAL27LB |
|---|---|
| Flight time | 1h 2m |
| Altitude | 34000 |
| Route | SSOXS7 SSOXS Q167 RIFLE Q439 BRIGS JIIMS4 |
| Aircraft | A320/M-SDE3FGHIRWY/LB1 |
Departure
| Time | 2026-05-07 00:50 |
|---|---|
| Airport | Boston Logan International Airport (KBOS) |
Arrival
| Time | 2026-05-07 01:52 |
|---|---|
| Airport | Philadelphia International Airport (KPHL) |
| Time | Latitude | Longitude | Altitude | Speed | Heading |
|---|---|---|---|---|---|
| 2026-05-07 00:28 | 42.36640 | -71.01383 | 27 ft | 0 kts | 245° |
| 2026-05-07 00:32 | 42.36640 | -71.01382 | 27 ft | 0 kts | 245° |
| 2026-05-07 00:38 | 42.36642 | -71.01375 | 23 ft | 2 kts | 232° |
| 2026-05-07 00:38 | 42.36654 | -71.01359 | 27 ft | 2 kts | 187° |
| 2026-05-07 00:38 | 42.36670 | -71.01356 | 26 ft | 2 kts | 159° |
| 2026-05-07 00:38 | 42.36685 | -71.01364 | 25 ft | 2 kts | 141° |
| 2026-05-07 00:39 | 42.36695 | -71.01376 | 24 ft | 1 kts | 86° |
| 2026-05-07 00:39 | 42.36695 | -71.01378 | 24 ft | 0 kts | 81° |
| 2026-05-07 00:43 | 42.36696 | -71.01370 | 24 ft | 2 kts | 81° |
| 2026-05-07 00:43 | 42.36701 | -71.01334 | 24 ft | 5 kts | 80° |
| 2026-05-07 00:43 | 42.36708 | -71.01284 | 26 ft | 6 kts | 74° |
| 2026-05-07 00:44 | 42.36740 | -71.01245 | 29 ft | 8 kts | 21° |
| 2026-05-07 00:44 | 42.36794 | -71.01272 | 25 ft | 10 kts | 321° |
| 2026-05-07 00:44 | 42.36848 | -71.01267 | 24 ft | 9 kts | 37° |
| 2026-05-07 00:44 | 42.36875 | -71.01236 | 26 ft | 0 kts | 41° |
| 2026-05-07 00:45 | 42.36877 | -71.01233 | 25 ft | 3 kts | 41° |
| 2026-05-07 00:45 | 42.36922 | -71.01181 | 25 ft | 10 kts | 41° |
| 2026-05-07 00:45 | 42.36982 | -71.01114 | 25 ft | 12 kts | 34° |
| 2026-05-07 00:46 | 42.37062 | -71.01059 | 22 ft | 14 kts | 26° |
| 2026-05-07 00:46 | 42.37152 | -71.01000 | 22 ft | 11 kts | 26° |
| 2026-05-07 00:46 | 42.37222 | -71.00955 | 22 ft | 12 kts | 26° |
| 2026-05-07 00:46 | 42.37310 | -71.00900 | 22 ft | 15 kts | 20° |
| 2026-05-07 00:47 | 42.37410 | -71.00852 | 22 ft | 15 kts | 20° |
| 2026-05-07 00:47 | 42.37503 | -71.00807 | 24 ft | 14 kts | 20° |
| 2026-05-07 00:47 | 42.37589 | -71.00764 | 25 ft | 13 kts | 20° |
| 2026-05-07 00:47 | 42.37670 | -71.00724 | 27 ft | 11 kts | 19° |
| 2026-05-07 00:48 | 42.37733 | -71.00696 | 29 ft | 8 kts | 19° |
| 2026-05-07 00:48 | 42.37777 | -71.00653 | 29 ft | 8 kts | 64° |
| 2026-05-07 00:48 | 42.37765 | -71.00578 | 28 ft | 10 kts | 111° |
| 2026-05-07 00:48 | 42.37714 | -71.00513 | 26 ft | 11 kts | 179° |
| 2026-05-07 00:49 | 42.37638 | -71.00546 | 27 ft | 17 kts | 200° |
| 2026-05-07 00:49 | 42.37300 | -71.00710 | 21 ft | 84 kts | 200° |
| 2026-05-07 00:49 | 42.36591 | -71.01054 | 29 ft | 131 kts | 200° |
| 2026-05-07 00:49 | 42.35677 | -71.01516 | 416 ft | 138 kts | 203° |
| 2026-05-07 00:50 | 42.34726 | -71.01752 | 962 ft | 143 kts | 178° |
| 2026-05-07 00:50 | 42.33776 | -71.01246 | 1557 ft | 157 kts | 152° |
| 2026-05-07 00:50 | 42.33007 | -71.00077 | 1961 ft | 177 kts | 141° |
| 2026-05-07 00:50 | 42.32210 | -70.98714 | 2130 ft | 193 kts | 137° |
| 2026-05-07 00:51 | 42.31450 | -70.97068 | 2309 ft | 224 kts | 116° |
| 2026-05-07 00:51 | 42.31258 | -70.94845 | 2547 ft | 254 kts | 84° |
| 2026-05-07 00:51 | 42.31596 | -70.92376 | 2851 ft | 280 kts | 79° |
| 2026-05-07 00:51 | 42.31978 | -70.89757 | 3443 ft | 294 kts | 79° |
| 2026-05-07 00:52 | 42.32377 | -70.87027 | 4260 ft | 297 kts | 80° |
| 2026-05-07 00:52 | 42.32774 | -70.84258 | 5049 ft | 304 kts | 79° |
| 2026-05-07 00:52 | 42.32970 | -70.81395 | 5836 ft | 306 kts | 95° |
| 2026-05-07 00:52 | 42.32670 | -70.78556 | 6658 ft | 306 kts | 109° |
| 2026-05-07 00:53 | 42.31908 | -70.75872 | 7413 ft | 306 kts | 120° |
| 2026-05-07 00:53 | 42.31005 | -70.73247 | 8186 ft | 309 kts | 120° |
| 2026-05-07 00:53 | 42.29924 | -70.70753 | 8935 ft | 307 kts | 134° |
| 2026-05-07 00:53 | 42.28452 | -70.68709 | 9688 ft | 301 kts | 149° |
| 2026-05-07 00:54 | 42.26699 | -70.67225 | 10368 ft | 296 kts | 163° |
| 2026-05-07 00:54 | 42.24720 | -70.66227 | 10599 ft | 313 kts | 169° |
| 2026-05-07 00:54 | 42.22580 | -70.65275 | 10735 ft | 336 kts | 169° |
| 2026-05-07 00:54 | 42.20286 | -70.64259 | 10862 ft | 357 kts | 168° |
| 2026-05-07 00:55 | 42.17882 | -70.63185 | 11240 ft | 368 kts | 169° |
| 2026-05-07 00:55 | 42.15393 | -70.62463 | 11825 ft | 363 kts | 180° |
| 2026-05-07 00:55 | 42.12890 | -70.62364 | 12494 ft | 358 kts | 190° |
| 2026-05-07 00:55 | 42.10452 | -70.62878 | 13145 ft | 353 kts | 200° |
| 2026-05-07 00:56 | 42.08119 | -70.63868 | 13777 ft | 352 kts | 204° |
| 2026-05-07 00:56 | 42.05784 | -70.64907 | 14364 ft | 354 kts | 204° |
| 2026-05-07 00:56 | 42.03437 | -70.65950 | 14943 ft | 356 kts | 204° |
| 2026-05-07 00:56 | 42.01072 | -70.66996 | 15524 ft | 358 kts | 203° |
| 2026-05-07 00:57 | 41.98701 | -70.68042 | 16115 ft | 361 kts | 203° |
| 2026-05-07 00:57 | 41.96303 | -70.69095 | 16681 ft | 363 kts | 203° |
| 2026-05-07 00:57 | 41.93898 | -70.70148 | 17279 ft | 365 kts | 203° |
| 2026-05-07 00:57 | 41.91473 | -70.71211 | 17860 ft | 368 kts | 203° |
| 2026-05-07 00:58 | 41.89060 | -70.72268 | 18385 ft | 371 kts | 204° |
| 2026-05-07 00:58 | 41.86596 | -70.73349 | 18856 ft | 374 kts | 204° |
| 2026-05-07 00:58 | 41.84123 | -70.74478 | 19310 ft | 375 kts | 208° |
| 2026-05-07 00:58 | 41.81797 | -70.76029 | 19757 ft | 374 kts | 214° |
| 2026-05-07 00:59 | 41.77230 | -70.79483 | 20588 ft | 381 kts | 216° |
| 2026-05-07 00:59 | 41.74909 | -70.81228 | 21006 ft | 384 kts | 216° |
| 2026-05-07 00:59 | 41.72574 | -70.82980 | 21408 ft | 387 kts | 216° |
| 2026-05-07 01:00 | 41.70317 | -70.84673 | 21773 ft | 389 kts | 216° |
| 2026-05-07 01:00 | 41.67948 | -70.86448 | 22158 ft | 392 kts | 217° |
| 2026-05-07 01:00 | 41.65566 | -70.88232 | 22560 ft | 394 kts | 217° |
| 2026-05-07 01:00 | 41.63165 | -70.90030 | 22956 ft | 396 kts | 218° |
| 2026-05-07 01:01 | 41.60781 | -70.91810 | 23334 ft | 397 kts | 218° |
| 2026-05-07 01:01 | 41.58363 | -70.93613 | 23645 ft | 399 kts | 218° |
| 2026-05-07 01:01 | 41.56056 | -70.95605 | 23952 ft | 391 kts | 226° |
| 2026-05-07 01:01 | 41.54063 | -70.98022 | 24271 ft | 384 kts | 234° |
| 2026-05-07 01:02 | 41.52415 | -71.00789 | 24590 ft | 379 kts | 242° |
| 2026-05-07 01:02 | 41.51451 | -71.02732 | 24799 ft | 379 kts | 242° |
| 2026-05-07 01:02 | 41.49989 | -71.05667 | 25109 ft | 380 kts | 242° |
| 2026-05-07 01:02 | 41.48519 | -71.08607 | 25455 ft | 381 kts | 242° |
| 2026-05-07 01:03 | 41.47050 | -71.11534 | 25922 ft | 379 kts | 242° |
| 2026-05-07 01:03 | 41.45589 | -71.14441 | 26383 ft | 376 kts | 242° |
| 2026-05-07 01:03 | 41.44134 | -71.17329 | 26787 ft | 375 kts | 242° |
| 2026-05-07 01:03 | 41.42678 | -71.20218 | 27216 ft | 374 kts | 242° |
| 2026-05-07 01:04 | 41.41230 | -71.23093 | 27672 ft | 373 kts | 242° |
| 2026-05-07 01:04 | 41.39836 | -71.25858 | 28140 ft | 371 kts | 242° |
| 2026-05-07 01:04 | 41.38418 | -71.28666 | 28606 ft | 369 kts | 242° |
| 2026-05-07 01:04 | 41.36989 | -71.31493 | 29096 ft | 367 kts | 242° |
| 2026-05-07 01:05 | 41.35549 | -71.34346 | 29587 ft | 365 kts | 242° |
| 2026-05-07 01:05 | 41.34155 | -71.37110 | 30051 ft | 364 kts | 242° |
| 2026-05-07 01:05 | 41.32747 | -71.39899 | 30460 ft | 362 kts | 242° |
| 2026-05-07 01:05 | 41.31344 | -71.42672 | 30872 ft | 361 kts | 242° |
| 2026-05-07 01:06 | 41.29944 | -71.45438 | 31256 ft | 360 kts | 242° |
| 2026-05-07 01:06 | 41.28573 | -71.48145 | 31649 ft | 359 kts | 242° |
| 2026-05-07 01:06 | 41.27158 | -71.50937 | 32047 ft | 358 kts | 243° |
| 2026-05-07 01:06 | 41.25802 | -71.53611 | 32446 ft | 357 kts | 243° |
| 2026-05-07 01:07 | 41.24386 | -71.56404 | 32894 ft | 355 kts | 243° |
| 2026-05-07 01:07 | 41.23009 | -71.59117 | 33353 ft | 353 kts | 243° |
| 2026-05-07 01:07 | 41.21637 | -71.61811 | 33777 ft | 352 kts | 243° |
| 2026-05-07 01:08 | 41.18876 | -71.67243 | 33886 ft | 362 kts | 243° |
| 2026-05-07 01:08 | 41.16025 | -71.72837 | 33888 ft | 368 kts | 243° |
| 2026-05-07 01:09 | 41.13146 | -71.78466 | 33891 ft | 369 kts | 243° |
| 2026-05-07 01:09 | 41.10274 | -71.84112 | 33900 ft | 369 kts | 243° |
| 2026-05-07 01:10 | 41.07420 | -71.89722 | 33889 ft | 369 kts | 243° |
| 2026-05-07 01:10 | 41.04552 | -71.95355 | 33917 ft | 369 kts | 243° |
| 2026-05-07 01:11 | 41.02137 | -72.01237 | 33917 ft | 361 kts | 251° |
| 2026-05-07 01:11 | 41.00021 | -72.07265 | 33912 ft | 361 kts | 251° |
| 2026-05-07 01:12 | 40.97893 | -72.13279 | 33875 ft | 361 kts | 250° |
| 2026-05-07 01:12 | 40.95760 | -72.19297 | 33871 ft | 361 kts | 250° |
| 2026-05-07 01:13 | 40.93631 | -72.25317 | 33871 ft | 361 kts | 251° |
| 2026-05-07 01:13 | 40.91298 | -72.31208 | 33898 ft | 368 kts | 242° |
| 2026-05-07 01:14 | 40.87726 | -72.36222 | 33901 ft | 377 kts | 234° |
| 2026-05-07 01:14 | 40.83986 | -72.41078 | 33912 ft | 377 kts | 234° |
| 2026-05-07 01:15 | 40.80252 | -72.45923 | 33855 ft | 378 kts | 233° |
| 2026-05-07 01:15 | 40.76199 | -72.50403 | 33873 ft | 383 kts | 230° |
| 2026-05-07 01:16 | 40.72082 | -72.54864 | 33879 ft | 383 kts | 230° |
| 2026-05-07 01:16 | 40.68065 | -72.59425 | 33883 ft | 376 kts | 235° |
| 2026-05-07 01:17 | 40.64362 | -72.64292 | 33865 ft | 376 kts | 235° |
| 2026-05-07 01:17 | 40.60649 | -72.69142 | 33876 ft | 375 kts | 235° |
| 2026-05-07 01:18 | 40.56939 | -72.73977 | 33882 ft | 375 kts | 235° |
| 2026-05-07 01:18 | 40.53251 | -72.78784 | 33888 ft | 375 kts | 235° |
| 2026-05-07 01:19 | 40.49482 | -72.83551 | 33883 ft | 377 kts | 233° |
| 2026-05-07 01:19 | 40.45587 | -72.88193 | 33825 ft | 380 kts | 233° |
| 2026-05-07 01:19 | 40.43628 | -72.90513 | 33551 ft | 380 kts | 233° |
| 2026-05-07 01:20 | 40.41669 | -72.92844 | 33292 ft | 380 kts | 233° |
| 2026-05-07 01:20 | 40.39711 | -72.95189 | 33048 ft | 381 kts | 233° |
| 2026-05-07 01:20 | 40.37763 | -72.97539 | 32789 ft | 380 kts | 233° |
| 2026-05-07 01:20 | 40.35815 | -72.99888 | 32531 ft | 380 kts | 233° |
| 2026-05-07 01:21 | 40.33867 | -73.02233 | 32280 ft | 381 kts | 233° |
| 2026-05-07 01:21 | 40.31909 | -73.04588 | 32026 ft | 382 kts | 232° |
| 2026-05-07 01:21 | 40.29948 | -73.06938 | 31724 ft | 384 kts | 232° |
| 2026-05-07 01:21 | 40.27972 | -73.09304 | 31472 ft | 386 kts | 232° |
| 2026-05-07 01:22 | 40.26007 | -73.11656 | 31229 ft | 388 kts | 232° |
| 2026-05-07 01:22 | 40.24017 | -73.14039 | 30992 ft | 389 kts | 232° |
| 2026-05-07 01:22 | 40.22015 | -73.16435 | 30758 ft | 390 kts | 231° |
| 2026-05-07 01:22 | 40.20008 | -73.18836 | 30515 ft | 391 kts | 231° |
| 2026-05-07 01:23 | 40.18028 | -73.21201 | 30286 ft | 392 kts | 231° |
| 2026-05-07 01:23 | 40.16002 | -73.23613 | 30050 ft | 394 kts | 231° |
| 2026-05-07 01:23 | 40.13974 | -73.26020 | 29789 ft | 395 kts | 231° |
| 2026-05-07 01:23 | 40.11941 | -73.28437 | 29469 ft | 396 kts | 231° |
| 2026-05-07 01:24 | 40.09901 | -73.30867 | 29209 ft | 398 kts | 231° |
| 2026-05-07 01:24 | 40.07857 | -73.33303 | 28964 ft | 398 kts | 231° |
| 2026-05-07 01:24 | 40.05810 | -73.35738 | 28685 ft | 399 kts | 231° |
| 2026-05-07 01:24 | 40.03758 | -73.38177 | 28419 ft | 400 kts | 231° |
| 2026-05-07 01:25 | 40.01699 | -73.40620 | 28164 ft | 401 kts | 231° |
| 2026-05-07 01:25 | 39.99633 | -73.43066 | 27902 ft | 402 kts | 231° |
| 2026-05-07 01:25 | 39.97561 | -73.45516 | 27642 ft | 403 kts | 231° |
| 2026-05-07 01:25 | 39.95478 | -73.47974 | 27387 ft | 404 kts | 230° |
| 2026-05-07 01:26 | 39.93400 | -73.50432 | 27094 ft | 405 kts | 230° |
| 2026-05-07 01:26 | 39.91332 | -73.52882 | 26843 ft | 407 kts | 231° |
| 2026-05-07 01:26 | 39.89365 | -73.55538 | 26595 ft | 402 kts | 237° |
| 2026-05-07 01:26 | 39.87618 | -73.58315 | 26352 ft | 402 kts | 237° |
| 2026-05-07 01:27 | 39.85855 | -73.61117 | 26110 ft | 403 kts | 237° |
| 2026-05-07 01:27 | 39.84070 | -73.63944 | 25866 ft | 404 kts | 237° |
| 2026-05-07 01:27 | 39.82291 | -73.66761 | 25657 ft | 404 kts | 237° |
| 2026-05-07 01:27 | 39.80552 | -73.69514 | 25434 ft | 404 kts | 237° |
| 2026-05-07 01:28 | 39.78795 | -73.72298 | 25194 ft | 405 kts | 237° |
| 2026-05-07 01:28 | 39.77013 | -73.75124 | 24959 ft | 406 kts | 237° |
| 2026-05-07 01:28 | 39.75308 | -73.77826 | 24706 ft | 408 kts | 237° |
| 2026-05-07 01:28 | 39.73483 | -73.80711 | 24465 ft | 410 kts | 237° |
| 2026-05-07 01:29 | 39.71672 | -73.83569 | 24232 ft | 412 kts | 237° |
| 2026-05-07 01:29 | 39.69856 | -73.86427 | 24016 ft | 413 kts | 237° |
| 2026-05-07 01:29 | 39.68040 | -73.89287 | 23798 ft | 414 kts | 237° |
| 2026-05-07 01:29 | 39.66208 | -73.92167 | 23568 ft | 413 kts | 237° |
| 2026-05-07 01:30 | 39.64391 | -73.95023 | 23320 ft | 412 kts | 236° |
| 2026-05-07 01:30 | 39.62562 | -73.97891 | 23054 ft | 412 kts | 236° |
| 2026-05-07 01:30 | 39.60745 | -74.00737 | 22809 ft | 411 kts | 236° |
| 2026-05-07 01:30 | 39.58927 | -74.03585 | 22546 ft | 409 kts | 236° |
| 2026-05-07 01:31 | 39.57115 | -74.06421 | 22284 ft | 407 kts | 236° |
| 2026-05-07 01:31 | 39.55452 | -74.09350 | 22024 ft | 402 kts | 243° |
| 2026-05-07 01:31 | 39.54160 | -74.12492 | 21765 ft | 397 kts | 250° |
| 2026-05-07 01:31 | 39.53231 | -74.15873 | 21506 ft | 393 kts | 257° |
| 2026-05-07 01:32 | 39.52696 | -74.19337 | 21260 ft | 392 kts | 264° |
| 2026-05-07 01:32 | 39.52540 | -74.22806 | 21006 ft | 391 kts | 270° |
| 2026-05-07 01:32 | 39.52609 | -74.26317 | 20764 ft | 391 kts | 271° |
| 2026-05-07 01:32 | 39.52677 | -74.29842 | 20520 ft | 391 kts | 271° |
| 2026-05-07 01:33 | 39.52740 | -74.33326 | 20279 ft | 391 kts | 271° |
| 2026-05-07 01:33 | 39.52801 | -74.36817 | 20057 ft | 390 kts | 270° |
| 2026-05-07 01:33 | 39.52862 | -74.40318 | 19820 ft | 389 kts | 270° |
| 2026-05-07 01:33 | 39.52921 | -74.43827 | 19583 ft | 389 kts | 270° |
| 2026-05-07 01:34 | 39.52982 | -74.47333 | 19345 ft | 389 kts | 270° |
| 2026-05-07 01:34 | 39.53044 | -74.50835 | 19114 ft | 389 kts | 270° |
| 2026-05-07 01:34 | 39.53106 | -74.54340 | 18880 ft | 389 kts | 270° |
| 2026-05-07 01:34 | 39.53167 | -74.57827 | 18655 ft | 389 kts | 270° |
| 2026-05-07 01:35 | 39.53223 | -74.61324 | 18418 ft | 388 kts | 270° |
| 2026-05-07 01:35 | 39.53277 | -74.64828 | 18185 ft | 389 kts | 270° |
| 2026-05-07 01:35 | 39.53330 | -74.68323 | 17924 ft | 388 kts | 270° |
| 2026-05-07 01:35 | 39.53384 | -74.71819 | 17659 ft | 387 kts | 270° |
| 2026-05-07 01:36 | 39.53435 | -74.75299 | 17398 ft | 386 kts | 270° |
| 2026-05-07 01:36 | 39.53486 | -74.78765 | 17137 ft | 385 kts | 270° |
| 2026-05-07 01:36 | 39.53541 | -74.82235 | 16882 ft | 384 kts | 270° |
| 2026-05-07 01:36 | 39.53597 | -74.85689 | 16620 ft | 383 kts | 270° |
| 2026-05-07 01:37 | 39.53653 | -74.89132 | 16365 ft | 382 kts | 270° |
| 2026-05-07 01:37 | 39.53741 | -74.92562 | 16110 ft | 382 kts | 273° |
| 2026-05-07 01:37 | 39.54166 | -74.95919 | 15859 ft | 383 kts | 281° |
| 2026-05-07 01:37 | 39.55016 | -74.99204 | 15592 ft | 385 kts | 289° |
| 2026-05-07 01:38 | 39.56237 | -75.02283 | 14907 ft | 383 kts | 295° |
| 2026-05-07 01:38 | 39.57575 | -75.05266 | 14177 ft | 382 kts | 295° |
| 2026-05-07 01:38 | 39.58911 | -75.08236 | 13480 ft | 381 kts | 295° |
| 2026-05-07 01:38 | 39.60237 | -75.11187 | 12746 ft | 378 kts | 295° |
| 2026-05-07 01:39 | 39.61554 | -75.14123 | 12045 ft | 375 kts | 295° |
| 2026-05-07 01:39 | 39.62855 | -75.17033 | 11345 ft | 371 kts | 295° |
| 2026-05-07 01:39 | 39.64137 | -75.19926 | 10636 ft | 368 kts | 295° |
| 2026-05-07 01:39 | 39.65392 | -75.22777 | 10241 ft | 356 kts | 295° |
| 2026-05-07 01:40 | 39.66586 | -75.25491 | 10121 ft | 337 kts | 295° |
| 2026-05-07 01:40 | 39.67728 | -75.28062 | 10002 ft | 320 kts | 295° |
| 2026-05-07 01:40 | 39.68856 | -75.30481 | 9883 ft | 308 kts | 301° |
| 2026-05-07 01:40 | 39.70380 | -75.32408 | 9763 ft | 307 kts | 320° |
| 2026-05-07 01:41 | 39.72332 | -75.33511 | 9635 ft | 310 kts | 341° |
| 2026-05-07 01:41 | 39.74489 | -75.33612 | 9501 ft | 313 kts | 3° |
| 2026-05-07 01:41 | 39.76547 | -75.32669 | 9286 ft | 318 kts | 26° |
| 2026-05-07 01:41 | 39.78203 | -75.30760 | 9005 ft | 322 kts | 52° |
| 2026-05-07 01:42 | 39.79178 | -75.28161 | 8721 ft | 320 kts | 77° |
| 2026-05-07 01:42 | 39.79560 | -75.25316 | 8604 ft | 321 kts | 82° |
| 2026-05-07 01:42 | 39.79833 | -75.22430 | 8463 ft | 320 kts | 87° |
| 2026-05-07 01:42 | 39.79989 | -75.19544 | 8139 ft | 319 kts | 88° |
| 2026-05-07 01:43 | 39.80129 | -75.16677 | 7817 ft | 317 kts | 88° |
| 2026-05-07 01:43 | 39.80266 | -75.13863 | 7513 ft | 315 kts | 88° |
| 2026-05-07 01:43 | 39.80393 | -75.11025 | 7219 ft | 313 kts | 88° |
| 2026-05-07 01:43 | 39.80558 | -75.08214 | 6934 ft | 310 kts | 82° |
| 2026-05-07 01:44 | 39.80957 | -75.05469 | 6631 ft | 309 kts | 78° |
| 2026-05-07 01:44 | 39.81378 | -75.02741 | 6377 ft | 305 kts | 78° |
| 2026-05-07 01:44 | 39.81793 | -75.00039 | 6033 ft | 305 kts | 78° |
| 2026-05-07 01:44 | 39.82212 | -74.97338 | 5708 ft | 304 kts | 78° |
| 2026-05-07 01:45 | 39.82727 | -74.94682 | 5403 ft | 301 kts | 64° |
| 2026-05-07 01:45 | 39.83907 | -74.92511 | 5130 ft | 291 kts | 36° |
| 2026-05-07 01:45 | 39.85615 | -74.91322 | 5001 ft | 270 kts | 7° |
| 2026-05-07 01:45 | 39.87416 | -74.91192 | 4880 ft | 253 kts | 350° |
| 2026-05-07 01:46 | 39.89133 | -74.91375 | 4751 ft | 243 kts | 347° |
| 2026-05-07 01:46 | 39.90676 | -74.91946 | 4619 ft | 221 kts | 323° |
| 2026-05-07 01:46 | 39.91783 | -74.93186 | 4489 ft | 202 kts | 301° |
| 2026-05-07 01:46 | 39.92407 | -74.94735 | 4364 ft | 186 kts | 282° |
| 2026-05-07 01:47 | 39.92572 | -74.96358 | 4132 ft | 179 kts | 265° |
| 2026-05-07 01:47 | 39.92333 | -74.97956 | 3785 ft | 180 kts | 255° |
| 2026-05-07 01:47 | 39.92033 | -74.99485 | 3521 ft | 170 kts | 255° |
| 2026-05-07 01:47 | 39.91749 | -75.00931 | 3265 ft | 158 kts | 255° |
| 2026-05-07 01:48 | 39.91478 | -75.02305 | 3068 ft | 156 kts | 255° |
| 2026-05-07 01:48 | 39.91210 | -75.03666 | 2864 ft | 154 kts | 255° |
| 2026-05-07 01:48 | 39.90944 | -75.05015 | 2662 ft | 153 kts | 255° |
| 2026-05-07 01:48 | 39.90680 | -75.06353 | 2464 ft | 153 kts | 256° |
| 2026-05-07 01:49 | 39.90415 | -75.07694 | 2267 ft | 156 kts | 256° |
| 2026-05-07 01:49 | 39.90145 | -75.09063 | 2059 ft | 155 kts | 256° |
| 2026-05-07 01:49 | 39.89885 | -75.10372 | 1881 ft | 142 kts | 257° |
| 2026-05-07 01:49 | 39.89724 | -75.11188 | 1739 ft | 138 kts | 256° |
| 2026-05-07 01:50 | 39.89409 | -75.12780 | 1494 ft | 137 kts | 256° |
| 2026-05-07 01:50 | 39.89173 | -75.13973 | 1315 ft | 135 kts | 256° |
| 2026-05-07 01:50 | 39.88937 | -75.15160 | 1129 ft | 135 kts | 256° |
| 2026-05-07 01:50 | 39.88702 | -75.16347 | 952 ft | 136 kts | 255° |
| 2026-05-07 01:51 | 39.88466 | -75.17533 | 785 ft | 135 kts | 255° |
| 2026-05-07 01:51 | 39.88308 | -75.18327 | 679 ft | 134 kts | 254° |
| 2026-05-07 01:51 | 39.88071 | -75.19519 | 492 ft | 135 kts | 252° |
| 2026-05-07 01:51 | 39.87844 | -75.20666 | 322 ft | 133 kts | 252° |
| 2026-05-07 01:52 | 39.87615 | -75.21841 | 148 ft | 136 kts | 252° |
| 2026-05-07 01:52 | 39.87380 | -75.23021 | 41 ft | 124 kts | 251° |
| 2026-05-07 01:52 | 39.87187 | -75.23963 | 24 ft | 85 kts | 255° |
| 2026-05-07 01:52 | 39.87081 | -75.24489 | 20 ft | 41 kts | 255° |
| 2026-05-07 01:53 | 39.87038 | -75.24742 | 18 ft | 18 kts | 267° |
| 2026-05-07 01:53 | 39.87100 | -75.24830 | 17 ft | 13 kts | 345° |
| 2026-05-07 01:53 | 39.87171 | -75.24855 | 16 ft | 11 kts | 345° |
| 2026-05-07 01:53 | 39.87221 | -75.24794 | 17 ft | 12 kts | 70° |
| 2026-05-07 01:54 | 39.87251 | -75.24691 | 19 ft | 12 kts | 39° |
| 2026-05-07 01:54 | 39.87306 | -75.24670 | 20 ft | 8 kts | 337° |
| 2026-05-07 01:54 | 39.87318 | -75.24684 | 18 ft | 0 kts | 319° |